createdAt,value
2022-09-14T00:00:01.837Z,8.50
2022-09-14T00:01:23.775Z,8.50
2022-09-14T00:02:02.853Z,7.50
2022-09-14T00:03:02.664Z,7.50
2022-09-14T00:04:02.281Z,7.50
2022-09-14T00:05:02.168Z,7.50
2022-09-14T00:06:02.090Z,7.50
2022-09-14T00:07:02.015Z,7.30
2022-09-14T00:08:01.935Z,7.30
2022-09-14T00:09:01.910Z,7.30
2022-09-14T00:10:02.285Z,7.30
2022-09-14T00:11:02.048Z,7.30
2022-09-14T00:12:02.357Z,8.00
2022-09-14T00:13:02.188Z,8.00
2022-09-14T00:14:02.031Z,8.00
2022-09-14T00:15:01.970Z,8.00
2022-09-14T00:16:01.979Z,8.00
2022-09-14T00:17:02.605Z,7.00
2022-09-14T00:18:03.149Z,7.00
2022-09-14T00:19:02.640Z,7.00
2022-09-14T00:20:02.812Z,7.00
2022-09-14T00:21:02.700Z,7.00
2022-09-14T00:22:02.102Z,7.10
2022-09-14T00:23:02.595Z,7.10
2022-09-14T00:24:02.315Z,7.10
2022-09-14T00:25:01.998Z,7.10
2022-09-14T00:26:02.484Z,7.10
2022-09-14T00:27:02.277Z,8.80
2022-09-14T00:28:02.398Z,8.80
2022-09-14T00:29:02.725Z,8.80
2022-09-14T00:30:02.481Z,8.80
2022-09-14T00:31:02.641Z,8.80
2022-09-14T00:32:02.641Z,8.60
2022-09-14T00:33:03.032Z,8.60
2022-09-14T00:34:02.572Z,8.60
2022-09-14T00:35:02.394Z,8.60
2022-09-14T00:36:02.775Z,8.60
2022-09-14T00:37:02.527Z,9.20
2022-09-14T00:38:02.947Z,9.20
2022-09-14T00:39:02.771Z,9.20
2022-09-14T00:40:02.694Z,9.20
2022-09-14T00:41:02.663Z,9.20
2022-09-14T00:42:02.479Z,10.70
2022-09-14T00:43:02.387Z,10.70
2022-09-14T00:44:02.234Z,10.70
2022-09-14T00:45:02.250Z,10.70
2022-09-14T00:46:02.524Z,10.70
2022-09-14T00:47:02.985Z,9.50
2022-09-14T00:48:02.597Z,9.50
2022-09-14T00:49:02.381Z,9.50
2022-09-14T00:50:02.527Z,9.50
2022-09-14T00:51:03.002Z,9.50
2022-09-14T00:52:02.639Z,10.30
2022-09-14T00:53:02.890Z,10.30
2022-09-14T00:54:02.883Z,10.30
2022-09-14T00:55:02.760Z,10.30
2022-09-14T00:56:02.608Z,10.30
2022-09-14T00:57:02.486Z,10.50
2022-09-14T00:58:02.559Z,10.50
2022-09-14T00:59:02.507Z,10.50
2022-09-14T01:00:02.633Z,10.50
2022-09-14T01:01:02.467Z,10.50
2022-09-14T01:02:03.804Z,10.00
2022-09-14T01:03:03.480Z,10.00
2022-09-14T01:04:03.421Z,10.00
2022-09-14T01:05:03.274Z,10.00
2022-09-14T01:06:03.824Z,10.00
2022-09-14T01:07:03.468Z,9.30
2022-09-14T01:08:03.950Z,9.30
2022-09-14T01:09:03.548Z,9.30
2022-09-14T01:10:03.443Z,9.30
2022-09-14T01:11:03.310Z,9.30
2022-09-14T01:12:02.894Z,12.70
2022-09-14T01:13:03.344Z,12.70
2022-09-14T01:14:02.947Z,12.70
2022-09-14T01:15:03.127Z,12.70
2022-09-14T01:16:03.095Z,12.70
2022-09-14T01:17:03.221Z,12.30
2022-09-14T01:18:03.190Z,12.30
2022-09-14T01:19:03.029Z,12.30
2022-09-14T01:20:03.487Z,12.30
2022-09-14T01:21:03.296Z,12.30
2022-09-14T01:22:03.548Z,11.60
2022-09-14T01:23:03.240Z,11.60
2022-09-14T01:24:03.079Z,11.60
2022-09-14T01:25:03.586Z,11.60
2022-09-14T01:26:03.190Z,11.60
2022-09-14T01:27:02.774Z,10.20
2022-09-14T01:28:03.083Z,10.20
2022-09-14T01:29:02.953Z,10.20
2022-09-14T01:30:02.830Z,10.20
2022-09-14T01:31:02.716Z,10.20
2022-09-14T01:32:03.588Z,12.20
2022-09-14T01:33:03.368Z,12.20
2022-09-14T01:34:03.164Z,12.20
2022-09-14T01:35:03.078Z,12.20
2022-09-14T01:36:03.664Z,12.20
2022-09-14T01:37:02.988Z,12.50
2022-09-14T01:38:02.768Z,12.50
2022-09-14T01:39:02.785Z,12.50
2022-09-14T01:40:03.408Z,12.50
2022-09-14T01:41:03.284Z,12.50
2022-09-14T01:42:03.188Z,12.40
2022-09-14T01:43:03.047Z,12.40
2022-09-14T01:44:02.908Z,12.40
2022-09-14T01:45:02.791Z,12.40
2022-09-14T01:46:03.523Z,12.40
2022-09-14T01:47:03.208Z,11.20
2022-09-14T01:48:03.343Z,11.20
2022-09-14T01:49:03.000Z,11.20
2022-09-14T01:50:02.932Z,11.20
2022-09-14T01:51:03.460Z,11.20
2022-09-14T01:52:03.709Z,11.20
2022-09-14T01:53:03.198Z,11.20
2022-09-14T01:54:03.038Z,11.20
2022-09-14T01:55:03.568Z,11.20
2022-09-14T01:56:03.339Z,11.20
2022-09-14T01:57:03.736Z,10.50
2022-09-14T01:58:03.583Z,10.50
2022-09-14T01:59:04.126Z,10.50
2022-09-14T02:00:03.719Z,10.50
2022-09-14T02:01:03.712Z,10.50
2022-09-14T02:02:02.487Z,10.10
2022-09-14T02:03:02.284Z,10.10
2022-09-14T02:04:02.255Z,10.10
2022-09-14T02:05:02.785Z,10.10
2022-09-14T02:06:02.415Z,10.10
2022-09-14T02:07:02.671Z,9.80
2022-09-14T02:08:02.492Z,9.80
2022-09-14T02:09:02.281Z,9.80
2022-09-14T02:10:02.811Z,9.80
2022-09-14T02:11:02.380Z,9.80
2022-09-14T02:12:02.871Z,10.80
2022-09-14T02:13:02.714Z,10.80
2022-09-14T02:14:03.076Z,10.80
2022-09-14T02:15:02.638Z,10.80
2022-09-14T02:16:03.231Z,10.80
2022-09-14T02:17:02.398Z,12.10
2022-09-14T02:18:02.693Z,12.10
2022-09-14T02:19:02.697Z,12.10
2022-09-14T02:20:02.601Z,12.10
2022-09-14T02:21:02.501Z,12.10
2022-09-14T02:22:01.866Z,10.90
2022-09-14T02:23:01.772Z,10.90
2022-09-14T02:24:02.042Z,10.90
2022-09-14T02:25:01.875Z,10.90
2022-09-14T02:26:01.932Z,10.90
2022-09-14T02:27:02.516Z,11.10
2022-09-14T02:28:02.371Z,11.10
2022-09-14T02:29:02.504Z,11.10
2022-09-14T02:30:02.348Z,11.10
2022-09-14T02:31:02.087Z,11.10
2022-09-14T02:32:02.702Z,11.40
2022-09-14T02:33:02.624Z,11.40
2022-09-14T02:34:02.335Z,11.40
2022-09-14T02:35:02.471Z,11.40
2022-09-14T02:36:02.503Z,11.40
2022-09-14T02:37:03.078Z,12.10
2022-09-14T02:38:02.938Z,12.10
2022-09-14T02:39:02.782Z,12.10
2022-09-14T02:40:02.894Z,12.10
2022-09-14T02:41:02.772Z,12.10
2022-09-14T02:42:02.366Z,11.70
2022-09-14T02:43:02.404Z,11.70
2022-09-14T02:44:02.046Z,11.70
2022-09-14T02:45:01.908Z,11.70
2022-09-14T02:46:01.779Z,11.70
2022-09-14T02:47:03.082Z,13.60
2022-09-14T02:48:02.478Z,13.60
2022-09-14T02:49:03.024Z,13.60
2022-09-14T02:50:02.768Z,13.60
2022-09-14T02:51:02.637Z,13.60
2022-09-14T02:52:03.213Z,13.00
2022-09-14T02:53:02.961Z,13.00
2022-09-14T02:54:02.975Z,13.00
2022-09-14T02:55:02.846Z,13.00
2022-09-14T02:56:02.817Z,13.00
2022-09-14T02:57:03.361Z,12.80
2022-09-14T02:58:03.085Z,12.80
2022-09-14T02:59:02.953Z,12.80
2022-09-14T03:00:03.238Z,12.80
2022-09-14T03:01:03.259Z,12.80
2022-09-14T03:02:02.409Z,12.80
2022-09-14T03:03:02.208Z,12.80
2022-09-14T03:04:02.558Z,12.80
2022-09-14T03:05:02.527Z,12.80
2022-09-14T03:06:02.443Z,12.80
2022-09-14T03:07:02.329Z,12.00
2022-09-14T03:08:02.976Z,12.00
2022-09-14T03:09:02.331Z,12.00
2022-09-14T03:10:02.877Z,12.00
2022-09-14T03:11:02.721Z,12.00
2022-09-14T03:12:02.870Z,13.50
2022-09-14T03:13:02.818Z,13.50
2022-09-14T03:14:02.899Z,13.50
2022-09-14T03:15:02.815Z,13.50
2022-09-14T03:16:02.730Z,13.50
2022-09-14T03:17:02.335Z,12.20
2022-09-14T03:18:02.848Z,12.20
2022-09-14T03:19:02.708Z,12.20
2022-09-14T03:20:02.580Z,12.20
2022-09-14T03:21:02.584Z,12.20
2022-09-14T03:22:02.505Z,12.70
2022-09-14T03:23:02.518Z,12.70
2022-09-14T03:24:03.080Z,12.70
2022-09-14T03:25:02.763Z,12.70
2022-09-14T03:26:02.706Z,12.70
2022-09-14T03:27:03.206Z,13.10
2022-09-14T03:28:02.858Z,13.10
2022-09-14T03:29:03.000Z,13.10
2022-09-14T03:30:03.014Z,13.10
2022-09-14T03:31:02.977Z,13.10
2022-09-14T03:32:02.895Z,11.00
2022-09-14T03:33:03.220Z,11.00
2022-09-14T03:34:03.111Z,11.00
2022-09-14T03:35:02.963Z,11.00
2022-09-14T03:36:03.508Z,11.00
2022-09-14T03:37:03.194Z,10.90
2022-09-14T03:39:03.123Z,10.90
2022-09-14T03:40:03.765Z,10.90
2022-09-14T03:41:03.433Z,10.90
2022-09-14T03:42:02.546Z,11.20
2022-09-14T03:43:03.090Z,11.20
2022-09-14T03:44:02.692Z,11.20
2022-09-14T03:45:02.519Z,11.20
2022-09-14T03:46:03.240Z,11.20
2022-09-14T03:47:03.004Z,11.10
2022-09-14T03:48:03.120Z,11.10
2022-09-14T03:49:02.980Z,11.10
2022-09-14T03:50:02.830Z,11.10
2022-09-14T03:51:03.358Z,11.10
2022-09-14T03:52:02.723Z,12.00
2022-09-14T03:53:02.611Z,12.00
2022-09-14T03:54:02.478Z,12.00
2022-09-14T03:55:02.886Z,12.00
2022-09-14T03:56:02.738Z,12.00
2022-09-14T03:57:02.589Z,11.50
2022-09-14T03:58:02.450Z,11.50
2022-09-14T03:59:02.981Z,11.50
2022-09-14T04:00:02.833Z,11.50
2022-09-14T04:01:02.855Z,11.50
2022-09-14T04:02:02.315Z,11.70
2022-09-14T04:03:02.322Z,11.70
2022-09-14T04:04:02.723Z,11.70
2022-09-14T04:05:02.562Z,11.70
2022-09-14T04:06:02.432Z,11.70
2022-09-14T04:07:02.038Z,11.50
2022-09-14T04:08:02.046Z,11.50
2022-09-14T04:09:01.926Z,11.50
2022-09-14T04:10:02.510Z,11.50
2022-09-14T04:11:02.092Z,11.50
2022-09-14T04:13:02.837Z,11.10
2022-09-14T04:14:02.609Z,11.10
2022-09-14T04:15:03.006Z,11.10
2022-09-14T04:16:03.115Z,11.10
2022-09-14T04:17:02.279Z,10.90
2022-09-14T04:18:02.288Z,10.90
2022-09-14T04:19:01.901Z,10.90
2022-09-14T04:20:01.766Z,10.90
2022-09-14T04:21:07.257Z,10.90
2022-09-14T04:22:01.984Z,10.70
2022-09-14T04:23:01.839Z,10.70
2022-09-14T04:24:17.957Z,10.70
2022-09-14T04:25:01.896Z,10.70
2022-09-14T04:26:02.420Z,10.70
2022-09-14T04:27:02.709Z,11.30
2022-09-14T04:28:19.661Z,11.30
2022-09-14T04:29:03.079Z,11.30
2022-09-14T04:30:02.515Z,11.30
2022-09-14T04:31:03.105Z,11.30
2022-09-14T04:32:02.756Z,13.90
2022-09-14T04:33:02.745Z,13.90
2022-09-14T04:34:02.435Z,13.90
2022-09-14T04:35:03.012Z,13.90
2022-09-14T04:36:02.898Z,13.90
2022-09-14T04:37:02.507Z,12.00
2022-09-14T04:38:02.380Z,12.00
2022-09-14T04:39:02.241Z,12.00
2022-09-14T04:40:02.541Z,12.00
2022-09-14T04:41:02.468Z,12.00
2022-09-14T04:42:02.801Z,12.60
2022-09-14T04:43:02.697Z,12.60
2022-09-14T04:44:03.258Z,12.60
2022-09-14T04:45:02.879Z,12.60
2022-09-14T04:46:02.900Z,12.60
2022-09-14T04:47:02.562Z,12.00
2022-09-14T04:48:02.756Z,12.00
2022-09-14T04:49:02.479Z,12.00
2022-09-14T04:50:02.339Z,12.00
2022-09-14T04:51:02.191Z,12.00
2022-09-14T04:52:02.744Z,11.60
2022-09-14T04:53:02.894Z,11.60
2022-09-14T04:54:02.794Z,11.60
2022-09-14T04:55:02.661Z,11.60
2022-09-14T04:56:02.491Z,11.60
2022-09-14T04:57:03.042Z,12.30
2022-09-14T04:58:02.928Z,12.30
2022-09-14T04:59:02.816Z,12.30
2022-09-14T05:00:02.717Z,12.30
2022-09-14T05:01:03.049Z,12.30
2022-09-14T05:02:02.815Z,11.30
2022-09-14T05:03:02.378Z,11.30
2022-09-14T05:04:02.360Z,11.30
2022-09-14T05:05:02.649Z,11.30
2022-09-14T05:06:02.554Z,11.30
2022-09-14T05:07:02.909Z,12.90
2022-09-14T05:08:02.968Z,12.90
2022-09-14T05:09:02.802Z,12.90
2022-09-14T05:10:03.035Z,12.90
2022-09-14T05:11:03.075Z,12.90
2022-09-14T05:12:02.850Z,13.50
2022-09-14T05:13:02.602Z,13.50
2022-09-14T05:14:02.634Z,13.50
2022-09-14T05:15:02.420Z,13.50
2022-09-14T05:16:02.711Z,13.50
2022-09-14T05:17:03.390Z,12.70
2022-09-14T05:18:02.819Z,12.70
2022-09-14T05:19:03.367Z,12.70
2022-09-14T05:20:03.376Z,12.70
2022-09-14T05:21:07.721Z,12.70
2022-09-14T05:22:02.984Z,12.50
2022-09-14T05:23:03.014Z,12.50
2022-09-14T05:24:02.771Z,12.50
2022-09-14T05:25:03.035Z,12.50
2022-09-14T05:26:02.652Z,12.50
2022-09-14T05:27:03.333Z,12.60
2022-09-14T05:28:02.790Z,12.60
2022-09-14T05:29:02.730Z,12.60
2022-09-14T05:30:03.335Z,12.60
2022-09-14T05:31:03.071Z,12.60
2022-09-14T05:32:02.781Z,12.90
2022-09-14T05:33:02.762Z,12.90
2022-09-14T05:34:02.369Z,12.90
2022-09-14T05:35:02.252Z,12.90
2022-09-14T05:36:02.259Z,12.90
2022-09-14T05:37:02.161Z,12.50
2022-09-14T05:38:02.834Z,12.50
2022-09-14T05:39:02.390Z,12.50
2022-09-14T05:40:02.477Z,12.50
2022-09-14T05:41:02.449Z,12.50
2022-09-14T05:42:02.387Z,11.60
2022-09-14T05:43:03.069Z,11.60
2022-09-14T05:44:02.767Z,11.60
2022-09-14T05:45:02.695Z,11.60
2022-09-14T05:46:02.652Z,11.60
2022-09-14T05:47:02.581Z,11.20
2022-09-14T05:48:02.982Z,11.20
2022-09-14T05:49:03.052Z,11.20
2022-09-14T05:50:03.266Z,11.20
2022-09-14T05:51:03.044Z,11.20
2022-09-14T05:52:03.063Z,11.30
2022-09-14T05:53:03.678Z,11.30
2022-09-14T05:54:03.396Z,11.30
2022-09-14T05:55:03.346Z,11.30
2022-09-14T05:56:03.688Z,11.30
2022-09-14T05:57:02.430Z,10.50
2022-09-14T05:58:03.021Z,10.50
2022-09-14T05:59:02.655Z,10.50
2022-09-14T06:00:02.746Z,10.50
2022-09-14T06:01:02.873Z,10.50
2022-09-14T06:02:01.907Z,9.30
2022-09-14T06:03:02.303Z,9.30
2022-09-14T06:04:01.888Z,9.30
2022-09-14T06:05:01.824Z,9.30
2022-09-14T06:06:01.679Z,9.30
2022-09-14T06:07:17.809Z,8.70
2022-09-14T06:08:02.894Z,8.70
2022-09-14T06:09:02.645Z,8.70
2022-09-14T06:10:02.657Z,8.70
2022-09-14T06:11:02.469Z,8.70
2022-09-14T06:12:02.050Z,8.40
2022-09-14T06:13:02.260Z,8.40
2022-09-14T06:14:02.109Z,8.40
2022-09-14T06:15:01.936Z,8.40
2022-09-14T06:16:02.461Z,8.40
2022-09-14T06:17:02.432Z,7.70
2022-09-14T06:18:02.954Z,7.70
2022-09-14T06:19:02.528Z,7.70
2022-09-14T06:20:04.867Z,7.70
2022-09-14T06:21:02.432Z,7.70
2022-09-14T06:22:02.009Z,8.10
2022-09-14T06:23:02.093Z,8.10
2022-09-14T06:24:02.058Z,8.10
2022-09-14T06:25:02.300Z,8.10
2022-09-14T06:26:02.330Z,8.10
2022-09-14T06:27:02.333Z,8.50
2022-09-14T06:28:02.693Z,8.50
2022-09-14T06:29:02.107Z,8.50
2022-09-14T06:30:02.521Z,8.50
2022-09-14T06:31:03.100Z,8.50
2022-09-14T06:32:02.769Z,8.90
2022-09-14T06:33:02.909Z,8.90
2022-09-14T06:34:03.038Z,8.90
2022-09-14T06:35:02.912Z,8.90
2022-09-14T06:36:02.951Z,8.90
2022-09-14T06:37:02.873Z,10.90
2022-09-14T06:38:02.682Z,10.90
2022-09-14T06:39:03.313Z,10.90
2022-09-14T06:40:03.061Z,10.90
2022-09-14T06:41:03.076Z,10.90
2022-09-14T06:42:02.117Z,9.00
2022-09-14T06:43:02.124Z,9.00
2022-09-14T06:44:02.091Z,9.00
2022-09-14T06:45:01.991Z,9.00
2022-09-14T06:46:02.232Z,9.00
2022-09-14T06:47:02.204Z,8.90
2022-09-14T06:48:02.064Z,8.90
2022-09-14T06:49:01.979Z,8.90
2022-09-14T06:50:02.607Z,8.90
2022-09-14T06:51:02.196Z,8.90
2022-09-14T06:52:02.641Z,8.00
2022-09-14T06:53:02.766Z,8.00
2022-09-14T06:54:02.610Z,8.00
2022-09-14T06:55:02.613Z,8.00
2022-09-14T06:56:02.622Z,8.00
2022-09-14T06:57:02.338Z,9.70
2022-09-14T06:58:02.352Z,9.70
2022-09-14T06:59:02.363Z,9.70
2022-09-14T07:00:02.393Z,9.70
2022-09-14T07:01:02.505Z,9.70
2022-09-14T07:02:02.519Z,10.90
2022-09-14T07:03:02.643Z,10.90
2022-09-14T07:04:02.790Z,10.90
2022-09-14T07:05:02.360Z,10.90
2022-09-14T07:06:02.522Z,10.90
2022-09-14T07:07:03.226Z,8.50
2022-09-14T07:08:03.205Z,8.50
2022-09-14T07:09:02.933Z,8.50
2022-09-14T07:10:03.046Z,8.50
2022-09-14T07:11:02.965Z,8.50
2022-09-14T07:12:02.730Z,7.80
2022-09-14T07:13:02.426Z,7.80
2022-09-14T07:14:02.430Z,7.80
2022-09-14T07:15:02.642Z,7.80
2022-09-14T07:16:02.619Z,7.80
2022-09-14T07:17:03.243Z,9.00
2022-09-14T07:18:03.102Z,9.00
2022-09-14T07:19:03.128Z,9.00
2022-09-14T07:20:03.129Z,9.00
2022-09-14T07:21:05.520Z,9.00
2022-09-14T07:22:02.720Z,8.90
2022-09-14T07:23:02.791Z,8.90
2022-09-14T07:24:02.803Z,8.90
2022-09-14T07:25:02.796Z,8.90
2022-09-14T07:26:02.801Z,8.90
2022-09-14T07:27:03.505Z,9.40
2022-09-14T07:28:03.560Z,9.40
2022-09-14T07:29:03.272Z,9.40
2022-09-14T07:30:03.321Z,9.40
2022-09-14T07:31:03.491Z,9.40
2022-09-14T07:32:02.963Z,10.30
2022-09-14T07:33:02.910Z,10.30
2022-09-14T07:34:02.907Z,10.30
2022-09-14T07:35:02.963Z,10.30
2022-09-14T07:36:02.880Z,10.30
2022-09-14T07:37:03.699Z,10.80
2022-09-14T07:38:03.785Z,10.80
2022-09-14T07:39:03.701Z,10.80
2022-09-14T07:40:03.688Z,10.80
2022-09-14T07:41:03.606Z,10.80
2022-09-14T07:42:03.057Z,9.80
2022-09-14T07:43:03.138Z,9.80
2022-09-14T07:44:02.695Z,9.80
2022-09-14T07:45:02.850Z,9.80
2022-09-14T07:46:02.970Z,9.80
2022-09-14T07:47:03.670Z,8.70
2022-09-14T07:48:03.514Z,8.70
2022-09-14T07:49:03.159Z,8.70
2022-09-14T07:50:03.227Z,8.70
2022-09-14T07:51:03.329Z,8.70
2022-09-14T07:52:03.032Z,9.20
2022-09-14T07:53:02.890Z,9.20
2022-09-14T07:54:02.667Z,9.20
2022-09-14T07:55:02.592Z,9.20
2022-09-14T07:56:02.539Z,9.20
2022-09-14T07:57:03.181Z,9.30
2022-09-14T07:58:02.960Z,9.30
2022-09-14T08:00:02.833Z,9.30
2022-09-14T08:01:02.930Z,9.30
2022-09-14T08:02:02.718Z,8.60
2022-09-14T08:03:02.525Z,8.60
2022-09-14T08:04:05.319Z,8.60
2022-09-14T08:05:02.248Z,8.60
2022-09-14T08:06:02.195Z,8.60
2022-09-14T08:07:01.636Z,7.50
2022-09-14T08:08:02.267Z,7.50
2022-09-14T08:09:01.610Z,7.50
2022-09-14T08:10:02.310Z,7.50
2022-09-14T08:11:01.971Z,7.50
2022-09-14T08:12:02.355Z,7.60
2022-09-14T08:13:02.379Z,7.60
2022-09-14T08:14:02.316Z,7.60
2022-09-14T08:15:02.198Z,7.60
2022-09-14T08:16:02.477Z,7.60
2022-09-14T08:17:02.607Z,8.30
2022-09-14T08:18:02.694Z,8.30
2022-09-14T08:19:02.647Z,8.30
2022-09-14T08:20:02.583Z,8.30
2022-09-14T08:21:02.671Z,8.30
2022-09-14T08:22:02.600Z,7.70
2022-09-14T08:23:03.174Z,7.70
2022-09-14T08:24:03.031Z,7.70
2022-09-14T08:25:03.120Z,7.70
2022-09-14T08:26:03.020Z,7.70
2022-09-14T08:27:02.056Z,7.80
2022-09-14T08:28:02.072Z,7.80
2022-09-14T08:29:02.020Z,7.80
2022-09-14T08:30:02.651Z,7.80
2022-09-14T08:31:02.339Z,7.80
2022-09-14T08:32:02.363Z,5.90
2022-09-14T08:33:02.661Z,5.90
2022-09-14T08:34:02.775Z,5.90
2022-09-14T08:35:02.717Z,5.90
2022-09-14T08:36:02.651Z,5.90
2022-09-14T08:37:02.043Z,6.20
2022-09-14T08:38:01.973Z,6.20
2022-09-14T08:39:02.582Z,6.20
2022-09-14T08:40:01.975Z,6.20
2022-09-14T08:41:01.936Z,6.20
2022-09-14T08:42:02.507Z,6.30
2022-09-14T08:43:02.418Z,6.30
2022-09-14T08:44:02.396Z,6.30
2022-09-14T08:45:06.326Z,6.30
2022-09-14T08:46:03.045Z,6.30
2022-09-14T08:47:02.959Z,6.20
2022-09-14T08:48:03.002Z,6.20
2022-09-14T08:49:03.006Z,6.20
2022-09-14T08:50:03.127Z,6.20
2022-09-14T08:51:03.105Z,6.20
2022-09-14T08:52:02.059Z,5.60
2022-09-14T08:53:01.994Z,5.60
2022-09-14T08:54:02.516Z,5.60
2022-09-14T08:55:02.213Z,5.60
2022-09-14T08:56:02.373Z,5.60
2022-09-14T08:57:02.327Z,5.00
2022-09-14T08:58:02.229Z,5.00
2022-09-14T08:59:02.830Z,5.00
2022-09-14T09:00:02.449Z,5.00
2022-09-14T09:01:02.545Z,5.00
2022-09-14T09:02:02.950Z,4.40
2022-09-14T09:03:02.899Z,4.40
2022-09-14T09:04:03.540Z,4.40
2022-09-14T09:05:03.114Z,4.40
2022-09-14T09:06:03.073Z,4.40
2022-09-14T09:07:03.073Z,4.80
2022-09-14T09:08:03.014Z,4.80
2022-09-14T09:09:02.940Z,4.80
2022-09-14T09:10:03.567Z,4.80
2022-09-14T09:11:03.220Z,4.80
2022-09-14T09:12:03.105Z,4.40
2022-09-14T09:13:03.608Z,4.40
2022-09-14T09:14:03.321Z,4.40
2022-09-14T09:15:03.380Z,4.40
2022-09-14T09:16:02.975Z,4.40
2022-09-14T09:17:02.667Z,4.60
2022-09-14T09:18:02.491Z,4.60
2022-09-14T09:19:03.090Z,4.60
2022-09-14T09:20:02.848Z,4.60
2022-09-14T09:21:02.763Z,4.60
2022-09-14T09:22:03.368Z,4.00
2022-09-14T09:23:03.275Z,4.00
2022-09-14T09:24:03.178Z,4.00
2022-09-14T09:25:03.778Z,4.00
2022-09-14T09:26:03.421Z,4.00
2022-09-14T09:27:03.061Z,3.80
2022-09-14T09:28:03.148Z,3.80
2022-09-14T09:29:03.129Z,3.80
2022-09-14T09:30:03.071Z,3.80
2022-09-14T09:31:02.987Z,3.80
2022-09-14T09:32:03.727Z,4.30
2022-09-14T09:33:03.641Z,4.30
2022-09-14T09:34:03.617Z,4.30
2022-09-14T09:35:03.499Z,4.30
2022-09-14T09:36:04.034Z,4.30
2022-09-14T09:37:03.356Z,3.60
2022-09-14T09:38:03.225Z,3.60
2022-09-14T09:39:05.358Z,3.60
2022-09-14T09:40:03.558Z,3.60
2022-09-14T09:41:03.276Z,3.60
2022-09-14T09:42:02.884Z,3.30
2022-09-14T09:43:02.745Z,3.30
2022-09-14T09:44:02.624Z,3.30
2022-09-14T09:45:04.185Z,3.30
2022-09-14T09:46:02.802Z,3.30
2022-09-14T09:47:03.442Z,3.10
2022-09-14T09:48:03.314Z,3.10
2022-09-14T09:49:03.192Z,3.10
2022-09-14T09:50:03.098Z,3.10
2022-09-14T09:51:02.973Z,3.10
2022-09-14T09:52:03.501Z,3.00
2022-09-14T09:53:06.672Z,3.00
2022-09-14T09:54:03.163Z,3.00
2022-09-14T09:55:03.099Z,3.00
2022-09-14T09:56:03.726Z,3.00
2022-09-14T09:57:03.159Z,2.90
2022-09-14T09:58:03.163Z,2.90
2022-09-14T09:59:03.096Z,2.90
2022-09-14T10:00:02.838Z,2.90
2022-09-14T10:01:03.306Z,2.90
2022-09-14T10:02:02.368Z,3.30
2022-09-14T10:03:02.094Z,3.30
2022-09-14T10:04:02.043Z,3.30
2022-09-14T10:05:02.232Z,3.30
2022-09-14T10:06:02.065Z,3.30
2022-09-14T10:07:02.706Z,3.00
2022-09-14T10:08:02.636Z,3.00
2022-09-14T10:09:02.544Z,3.00
2022-09-14T10:10:02.561Z,3.00
2022-09-14T10:11:02.493Z,3.00
2022-09-14T10:12:03.076Z,2.50
2022-09-14T10:13:03.016Z,2.50
2022-09-14T10:14:02.665Z,2.50
2022-09-14T10:15:02.586Z,2.50
2022-09-14T10:16:03.254Z,2.50
2022-09-14T10:17:02.733Z,2.40
2022-09-14T10:18:02.172Z,2.40
2022-09-14T10:19:02.302Z,2.40
2022-09-14T10:20:02.260Z,2.40
2022-09-14T10:21:02.328Z,2.40
2022-09-14T10:22:03.072Z,2.20
2022-09-14T10:23:03.085Z,2.20
2022-09-14T10:24:03.044Z,2.20
2022-09-14T10:25:02.982Z,2.20
2022-09-14T10:26:02.913Z,2.20
2022-09-14T10:27:02.590Z,2.00
2022-09-14T10:28:02.258Z,2.00
2022-09-14T10:29:02.187Z,2.00
2022-09-14T10:30:02.133Z,2.00
2022-09-14T10:31:02.154Z,2.00
2022-09-14T10:32:02.874Z,2.30
2022-09-14T10:33:02.789Z,2.30
2022-09-14T10:34:02.758Z,2.30
2022-09-14T10:35:02.707Z,2.30
2022-09-14T10:36:02.753Z,2.30
2022-09-14T10:37:03.042Z,1.70
2022-09-14T10:38:03.001Z,1.70
2022-09-14T10:39:02.924Z,1.70
2022-09-14T10:40:03.075Z,1.70
2022-09-14T10:41:02.904Z,1.70
2022-09-14T10:42:01.894Z,1.80
2022-09-14T10:43:02.463Z,1.80
2022-09-14T10:44:02.395Z,1.80
2022-09-14T10:45:02.328Z,1.80
2022-09-14T10:46:02.341Z,1.80
2022-09-14T10:47:04.729Z,2.00
2022-09-14T10:48:02.449Z,2.00
2022-09-14T10:49:02.614Z,2.00
2022-09-14T10:50:02.555Z,2.00
2022-09-14T10:51:02.484Z,2.00
2022-09-14T10:52:02.406Z,2.10
2022-09-14T10:53:02.637Z,2.10
2022-09-14T10:54:02.568Z,2.10
2022-09-14T10:55:02.487Z,2.10
2022-09-14T10:56:03.057Z,2.10
2022-09-14T10:57:02.784Z,3.00
2022-09-14T10:58:03.398Z,3.00
2022-09-14T10:59:03.140Z,3.00
2022-09-14T11:00:03.398Z,3.00
2022-09-14T11:01:03.248Z,3.00
2022-09-14T11:02:03.454Z,3.30
2022-09-14T11:03:02.648Z,3.30
2022-09-14T11:04:02.693Z,3.30
2022-09-14T11:05:02.692Z,3.30
2022-09-14T11:06:02.643Z,3.30
2022-09-14T11:07:02.643Z,4.20
2022-09-14T11:08:03.312Z,4.20
2022-09-14T11:09:03.297Z,4.20
2022-09-14T11:10:03.205Z,4.20
2022-09-14T11:11:03.060Z,4.20
2022-09-14T11:12:03.031Z,4.80
2022-09-14T11:13:02.644Z,4.80
2022-09-14T11:14:02.488Z,4.80
2022-09-14T11:15:02.423Z,4.80
2022-09-14T11:16:02.491Z,4.80
2022-09-14T11:17:02.427Z,5.10
2022-09-14T11:18:03.087Z,5.10
2022-09-14T11:19:03.077Z,5.10
2022-09-14T11:20:03.168Z,5.10
2022-09-14T11:21:03.039Z,5.10
2022-09-14T11:22:02.913Z,6.70
2022-09-14T11:23:02.576Z,6.70
2022-09-14T11:24:02.582Z,6.70
2022-09-14T11:25:02.531Z,6.70
2022-09-14T11:26:02.476Z,6.70
2022-09-14T11:27:02.330Z,6.70
2022-09-14T11:28:02.987Z,6.70
2022-09-14T11:29:03.204Z,6.70
2022-09-14T11:30:03.183Z,6.70
2022-09-14T11:31:03.213Z,6.70
2022-09-14T11:32:21.550Z,8.00
2022-09-14T11:33:03.361Z,8.00
2022-09-14T11:34:03.345Z,8.00
2022-09-14T11:35:03.282Z,8.00
2022-09-14T11:36:03.251Z,8.00
2022-09-14T11:37:03.150Z,7.00
2022-09-14T11:38:02.664Z,7.00
2022-09-14T11:39:06.715Z,7.00
2022-09-14T11:40:02.730Z,7.00
2022-09-14T11:41:02.846Z,7.00
2022-09-14T11:42:02.590Z,7.10
2022-09-14T11:43:03.282Z,7.10
2022-09-14T11:44:03.353Z,7.10
2022-09-14T11:45:03.216Z,7.10
2022-09-14T11:46:03.349Z,7.10
2022-09-14T11:47:03.331Z,8.80
2022-09-14T11:48:03.314Z,8.80
2022-09-14T11:49:03.289Z,8.80
2022-09-14T11:50:03.361Z,8.80
2022-09-14T11:51:03.430Z,8.80
2022-09-14T11:52:03.402Z,8.00
2022-09-14T11:53:03.330Z,8.00
2022-09-14T11:54:03.345Z,8.00
2022-09-14T11:55:03.274Z,8.00
2022-09-14T11:56:03.111Z,8.00
2022-09-14T11:57:03.119Z,7.70
2022-09-14T11:58:03.832Z,7.70
2022-09-14T11:59:03.878Z,7.70
2022-09-14T12:00:03.996Z,7.70
2022-09-14T12:01:03.762Z,7.70
2022-09-14T12:02:03.739Z,7.20
2022-09-14T12:03:02.602Z,7.20
2022-09-14T12:04:02.581Z,7.20
2022-09-14T12:05:02.421Z,7.20
2022-09-14T12:06:02.472Z,7.20
2022-09-14T12:07:02.496Z,7.40
2022-09-14T12:08:03.287Z,7.40
2022-09-14T12:09:02.687Z,7.40
2022-09-14T12:10:02.899Z,7.40
2022-09-14T12:11:02.958Z,7.40
2022-09-14T12:12:03.018Z,6.20
2022-09-14T12:13:02.790Z,6.20
2022-09-14T12:14:02.532Z,6.20
2022-09-14T12:15:02.500Z,6.20
2022-09-14T12:16:02.659Z,6.20
2022-09-14T12:17:17.289Z,5.80
2022-09-14T12:18:03.336Z,5.80
2022-09-14T12:19:03.046Z,5.80
2022-09-14T12:20:03.098Z,5.80
2022-09-14T12:21:03.346Z,5.80
2022-09-14T12:22:03.130Z,5.70
2022-09-14T12:23:02.799Z,5.70
2022-09-14T12:24:02.359Z,5.70
2022-09-14T12:25:02.367Z,5.70
2022-09-14T12:26:02.307Z,5.70
2022-09-14T12:27:02.266Z,5.40
2022-09-14T12:28:02.935Z,5.40
2022-09-14T12:29:02.679Z,5.40
2022-09-14T12:30:02.651Z,5.40
2022-09-14T12:31:02.628Z,5.40
2022-09-14T12:32:02.567Z,5.50
2022-09-14T12:33:03.101Z,5.50
2022-09-14T12:34:03.106Z,5.50
2022-09-14T12:35:03.024Z,5.50
2022-09-14T12:36:02.666Z,5.50
2022-09-14T12:37:03.226Z,5.70
2022-09-14T12:38:02.085Z,5.70
2022-09-14T12:39:02.127Z,5.70
2022-09-14T12:40:02.804Z,5.70
2022-09-14T12:41:02.579Z,5.70
2022-09-14T12:42:02.575Z,4.40
2022-09-14T12:43:02.613Z,4.40
2022-09-14T12:44:02.849Z,4.40
2022-09-14T12:45:03.070Z,4.40
2022-09-14T12:46:03.251Z,4.40
2022-09-14T12:47:03.073Z,3.60
2022-09-14T12:48:02.496Z,3.60
2022-09-14T12:49:02.399Z,3.60
2022-09-14T12:50:02.368Z,3.60
2022-09-14T12:51:02.295Z,3.60
2022-09-14T12:52:02.291Z,3.80
2022-09-14T12:53:02.221Z,3.80
2022-09-14T12:54:02.741Z,3.80
2022-09-14T12:55:02.642Z,3.80
2022-09-14T12:56:02.596Z,3.80
2022-09-14T12:57:02.647Z,3.90
2022-09-14T12:58:03.236Z,3.90
2022-09-14T12:59:02.994Z,3.90
2022-09-14T13:00:02.852Z,3.90
2022-09-14T13:01:02.781Z,3.90
2022-09-14T13:02:02.997Z,3.00
2022-09-14T13:03:02.068Z,3.00
2022-09-14T13:04:02.114Z,3.00
2022-09-14T13:05:02.021Z,3.00
2022-09-14T13:06:02.639Z,3.00
2022-09-14T13:07:02.275Z,3.00
2022-09-14T13:08:02.307Z,3.00
2022-09-14T13:09:03.110Z,3.00
2022-09-14T13:10:02.204Z,3.00